Time;durP1;ratioP1;P1;durP2;ratioP2;P2;SDS_P1;SDS_P2;PMS_P1;PMS_P2;Temp;Humidity;BMP_temperature;BMP_pressure;BME280_temperature;BME280_humidity;BME280_pressure;Samples;Min_cycle;Max_cycle;Signal;HPM_P1;HPM_P2
2022/06/25 00:01:50;;;;;;;3.55;1.90;;;27.80;99.90;;;;;;4170592;28;20483;-68
2022/06/25 00:04:03;;;;;;;4.10;1.83;;;27.90;99.90;;;;;;4161759;28;20048;-69
2022/06/25 00:06:16;;;;;;;6.20;2.70;;;27.90;99.90;;;;;;4166996;28;20045;-69
2022/06/25 00:08:30;;;;;;;7.60;3.72;;;27.90;99.90;;;;;;4172769;28;20099;-68
2022/06/25 00:10:47;;;;;;;7.95;3.38;;;27.90;99.90;;;;;;4168194;28;20042;-68
2022/06/25 00:12:52;;;;;;;9.13;3.97;;;27.90;99.90;;;;;;4168424;28;20252;-68
2022/06/25 00:14:59;;;;;;;6.25;3.03;;;28.00;99.90;;;;;;4174616;28;20068;-69
2022/06/25 00:17:11;;;;;;;4.75;2.90;;;28.00;99.90;;;;;;4173739;28;20048;-69
2022/06/25 00:19:23;;;;;;;6.18;2.17;;;28.00;99.90;;;;;;4185282;28;20502;-69
2022/06/25 00:21:28;;;;;;;4.70;2.05;;;28.10;99.90;;;;;;4169258;28;20392;-69
2022/06/25 00:23:39;;;;;;;3.40;2.10;;;28.10;99.90;;;;;;4137039;28;20128;-68
2022/06/25 00:25:46;;;;;;;11.48;2.22;;;28.10;99.90;;;;;;4169109;28;20532;-69
2022/06/25 00:27:53;;;;;;;4.10;2.25;;;28.20;99.90;;;;;;4169746;28;20052;-69
2022/06/25 00:30:05;;;;;;;3.58;2.08;;;28.20;99.90;;;;;;4166523;28;20068;-69
2022/06/25 00:32:11;;;;;;;4.63;2.35;;;28.20;99.90;;;;;;4168706;28;20100;-69
2022/06/25 00:34:21;;;;;;;5.50;2.20;;;28.20;99.90;;;;;;4170570;28;20558;-70
2022/06/25 00:36:31;;;;;;;8.32;2.38;;;28.20;99.90;;;;;;4169305;28;20136;-69
2022/06/25 00:38:46;;;;;;;4.03;2.58;;;28.20;99.90;;;;;;4170977;28;20447;-69
2022/06/25 00:40:51;;;;;;;10.15;2.80;;;28.20;99.90;;;;;;4158952;28;20159;-69
2022/06/25 00:43:04;;;;;;;6.00;2.58;;;28.20;99.90;;;;;;4134402;28;20061;-69
2022/06/25 00:45:10;;;;;;;7.50;2.60;;;28.30;99.90;;;;;;4168852;28;20420;-69
2022/06/25 00:47:17;;;;;;;4.70;2.22;;;28.40;99.90;;;;;;4170067;28;20571;-70
2022/06/25 00:49:26;;;;;;;5.10;2.15;;;28.40;99.90;;;;;;4166746;28;20072;-70
2022/06/25 00:51:35;;;;;;;3.90;2.35;;;28.50;99.90;;;;;;4169460;28;20418;-70
2022/06/25 00:53:55;;;;;;;4.50;2.53;;;28.50;99.90;;;;;;4159943;28;20045;-70
2022/06/25 00:56:05;;;;;;;5.07;2.55;;;28.50;99.90;;;;;;4126408;28;20188;-71
2022/06/25 00:58:14;;;;;;;4.78;2.60;;;28.50;99.90;;;;;;4173757;28;20040;-70
2022/06/25 01:00:21;;;;;;;3.75;2.72;;;28.50;99.90;;;;;;4169563;28;20037;-70
2022/06/25 01:02:49;;;;;;;4.35;2.38;;;28.60;99.90;;;;;;4169138;28;20041;-72
2022/06/25 01:04:56;;;;;;;4.03;2.33;;;28.60;99.90;;;;;;4168967;28;20065;-71
2022/06/25 01:07:07;;;;;;;4.45;2.55;;;28.70;99.90;;;;;;4172776;28;20033;-70
2022/06/25 01:09:18;;;;;;;3.70;2.35;;;28.60;99.90;;;;;;4167490;28;20136;-70
2022/06/25 01:11:23;;;;;;;4.00;2.72;;;28.50;99.90;;;;;;4187424;28;20036;-70
2022/06/25 01:13:34;;;;;;;4.30;2.60;;;28.60;99.90;;;;;;4170425;28;20060;-71
2022/06/25 01:15:48;;;;;;;5.87;3.00;;;28.60;99.90;;;;;;4157231;28;20038;-69
2022/06/25 01:18:00;;;;;;;4.15;2.70;;;28.70;99.90;;;;;;4174415;28;20072;-69
2022/06/25 01:20:06;;;;;;;4.72;2.40;;;28.90;99.90;;;;;;4173474;28;20037;-69
2022/06/25 01:22:13;;;;;;;3.60;2.50;;;29.10;99.90;;;;;;4155948;28;20048;-69
2022/06/25 01:24:18;;;;;;;3.80;2.50;;;29.10;99.90;;;;;;4172678;28;20044;-70
2022/06/25 01:26:23;;;;;;;3.70;2.90;;;29.10;99.90;;;;;;4165216;28;20063;-70
2022/06/25 01:28:31;;;;;;;4.20;2.90;;;29.20;99.90;;;;;;4166221;28;20044;-70
2022/06/25 01:30:37;;;;;;;5.90;2.63;;;29.20;99.90;;;;;;4168544;28;20061;-69
2022/06/25 01:32:42;;;;;;;7.10;2.85;;;29.20;99.90;;;;;;4171281;28;20373;-69
2022/06/25 01:34:47;;;;;;;7.55;3.80;;;29.30;99.90;;;;;;4173676;28;20106;-69
2022/06/25 01:36:52;;;;;;;5.97;3.35;;;29.30;99.90;;;;;;4171694;28;20049;-69
2022/06/25 01:38:59;;;;;;;4.78;3.50;;;29.20;99.90;;;;;;4167020;28;20523;-68
2022/06/25 01:41:14;;;;;;;4.03;2.70;;;29.10;99.90;;;;;;4171618;28;20036;-68
2022/06/25 01:43:21;;;;;;;4.25;3.00;;;29.20;99.90;;;;;;4169049;28;20045;-69
2022/06/25 01:45:35;;;;;;;3.85;2.60;;;29.20;99.90;;;;;;4151314;28;20041;-70
2022/06/25 01:47:42;;;;;;;3.08;2.67;;;29.30;99.90;;;;;;4173395;28;20123;-70
2022/06/25 01:49:47;;;;;;;26.02;3.70;;;29.30;99.90;;;;;;4173622;28;20052;-67
2022/06/25 01:51:53;;;;;;;8.93;3.33;;;29.30;99.90;;;;;;4175377;28;20111;-69
2022/06/25 01:54:00;;;;;;;4.82;2.97;;;29.40;99.90;;;;;;4140429;28;20041;-68
2022/06/25 01:56:08;;;;;;;5.53;2.90;;;29.50;99.90;;;;;;4190855;28;20494;-68
2022/06/25 01:58:21;;;;;;;4.65;2.75;;;29.50;99.90;;;;;;4162461;28;20096;-69
2022/06/25 02:00:34;;;;;;;6.47;2.78;;;29.50;99.90;;;;;;4136143;28;20042;-68
2022/06/25 02:02:50;;;;;;;4.78;3.05;;;29.40;99.90;;;;;;4163087;28;20037;-69
2022/06/25 02:05:09;;;;;;;4.18;2.25;;;29.60;99.90;;;;;;4191746;28;20495;-68
2022/06/25 02:07:22;;;;;;;6.68;2.80;;;29.80;99.90;;;;;;4134973;28;20077;-68
2022/06/25 02:09:29;;;;;;;3.63;2.80;;;29.90;99.90;;;;;;4171532;28;20051;-68
2022/06/25 02:11:39;;;;;;;4.55;2.80;;;30.00;99.90;;;;;;4176365;28;20044;-69
2022/06/25 02:13:55;;;;;;;6.50;2.88;;;30.10;99.90;;;;;;4148166;28;20436;-68
2022/06/25 02:16:15;;;;;;;4.15;3.00;;;30.10;99.90;;;;;;4173865;28;20053;-68
2022/06/25 02:18:19;;;;;;;3.90;2.88;;;29.90;99.90;;;;;;4172769;28;20053;-68
2022/06/25 02:20:30;;;;;;;5.20;2.70;;;29.90;99.90;;;;;;4137503;28;20588;-68
2022/06/25 02:22:39;;;;;;;4.22;3.03;;;30.10;99.90;;;;;;4154160;28;20050;-70
2022/06/25 02:24:46;;;;;;;6.30;3.03;;;30.20;99.60;;;;;;4169885;28;20071;-70
2022/06/25 02:26:56;;;;;;;3.88;3.05;;;30.20;99.60;;;;;;4154903;28;20048;-71
2022/06/25 02:29:02;;;;;;;3.13;2.60;;;30.30;99.50;;;;;;4191762;28;20045;-70
2022/06/25 02:31:07;;;;;;;4.50;2.88;;;30.40;99.40;;;;;;4176107;28;20431;-70
2022/06/25 02:33:13;;;;;;;4.40;2.72;;;30.50;99.30;;;;;;4176348;28;20478;-70
2022/06/25 02:35:19;;;;;;;4.70;2.63;;;30.50;99.30;;;;;;4157780;28;20186;-67
2022/06/25 02:37:24;;;;;;;5.55;3.13;;;30.50;99.10;;;;;;4165054;28;20049;-68
2022/06/25 02:39:29;;;;;;;4.38;3.10;;;30.50;98.80;;;;;;4159306;28;20076;-67
2022/06/25 02:41:34;;;;;;;3.47;2.70;;;30.60;98.80;;;;;;4160054;28;20540;-70
2022/06/25 02:43:42;;;;;;;5.18;3.13;;;30.80;98.80;;;;;;4175625;28;20110;-69
2022/06/25 02:46:14;;;;;;;3.15;2.72;;;31.00;98.80;;;;;;4178042;28;20089;-70
2022/06/25 02:48:24;;;;;;;3.90;2.95;;;31.20;98.70;;;;;;4181992;28;20114;-70
2022/06/25 02:50:30;;;;;;;4.15;2.80;;;31.20;98.50;;;;;;4171001;28;20053;-70
2022/06/25 02:52:35;;;;;;;4.43;2.78;;;31.20;98.40;;;;;;4165154;28;20060;-72
2022/06/25 02:54:40;;;;;;;3.70;2.88;;;31.30;98.50;;;;;;4168785;28;20423;-69
2022/06/25 02:59:05;;;;;;;5.35;2.88;;;31.30;98.50;;;;;;4178531;28;20072;-69
2022/06/25 03:01:14;;;;;;;3.95;2.67;;;31.40;98.20;;;;;;4180138;28;20048;-69
2022/06/25 03:03:19;;;;;;;4.22;3.00;;;31.30;98.10;;;;;;4174528;28;20083;-69
2022/06/25 03:05:27;;;;;;;4.07;2.85;;;31.10;98.10;;;;;;4158965;28;20041;-69
2022/06/25 03:07:31;;;;;;;3.25;2.75;;;31.00;97.40;;;;;;4175960;28;20111;-69
2022/06/25 03:09:39;;;;;;;3.63;2.85;;;31.10;98.20;;;;;;4160733;28;20041;-69
2022/06/25 03:11:46;;;;;;;4.13;2.80;;;31.30;97.90;;;;;;4157682;28;20041;-70
2022/06/25 03:13:52;;;;;;;4.22;2.70;;;31.40;97.60;;;;;;4197560;28;20083;-70
2022/06/25 03:15:58;;;;;;;4.05;2.65;;;31.30;97.80;;;;;;4156789;28;20071;-70
2022/06/25 03:18:04;;;;;;;3.65;3.08;;;31.40;97.50;;;;;;4174471;28;20104;-69
2022/06/25 03:20:24;;;;;;;5.28;2.88;;;31.30;97.70;;;;;;4174435;28;20155;-70
2022/06/25 03:22:33;;;;;;;4.10;2.90;;;31.50;97.50;;;;;;4174495;28;20601;-70
2022/06/25 03:24:51;;;;;;;3.92;2.85;;;31.30;97.50;;;;;;4189659;28;20514;-70
2022/06/25 03:27:03;;;;;;;4.38;2.92;;;31.20;97.50;;;;;;4149404;28;20460;-70
2022/06/25 03:29:10;;;;;;;4.85;3.00;;;31.10;97.50;;;;;;4174890;28;20044;-69
2022/06/25 03:31:21;;;;;;;3.88;2.55;;;31.20;97.60;;;;;;4181326;28;20144;-70
2022/06/25 03:33:35;;;;;;;4.20;2.50;;;31.20;97.50;;;;;;4159844;28;20041;-70
2022/06/25 03:35:52;;;;;;;4.32;2.80;;;31.40;97.40;;;;;;4163290;28;20251;-70
2022/06/25 03:38:15;;;;;;;5.50;2.42;;;31.40;97.60;;;;;;4183174;28;20151;-69
2022/06/25 03:40:28;;;;;;;6.40;3.20;;;31.50;97.20;;;;;;4175737;28;20065;-70
2022/06/25 03:42:38;;;;;;;4.55;2.78;;;31.80;97.00;;;;;;4175509;28;20502;-70
2022/06/25 03:45:01;;;;;;;4.07;2.73;;;31.90;97.20;;;;;;4130270;28;20512;-69
2022/06/25 03:47:11;;;;;;;5.60;2.97;;;31.90;97.20;;;;;;4174584;28;20627;-69
2022/06/25 03:49:16;;;;;;;4.97;2.80;;;32.00;96.90;;;;;;4158782;28;20152;-70
2022/06/25 03:51:33;;;;;;;6.88;2.92;;;32.10;96.70;;;;;;4174029;28;20073;-70
2022/06/25 03:53:40;;;;;;;4.88;3.10;;;31.90;96.80;;;;;;4157999;28;20741;-69
2022/06/25 03:55:45;;;;;;;4.70;3.05;;;31.90;97.00;;;;;;4187385;28;20075;-70
2022/06/25 03:58:02;;;;;;;4.82;2.78;;;31.90;96.90;;;;;;4161966;28;20037;-69
2022/06/25 04:00:12;;;;;;;3.28;2.97;;;31.80;96.50;;;;;;4172792;28;20037;-70
2022/06/25 04:02:29;;;;;;;7.85;3.72;;;31.60;96.50;;;;;;4191411;28;20059;-69
2022/06/25 04:05:04;;;;;;;5.53;4.30;;;31.40;96.60;;;;;;4175977;28;20442;-69
2022/06/25 04:07:11;;;;;;;5.25;3.97;;;31.70;96.90;;;;;;4175406;28;20124;-70
2022/06/25 04:09:16;;;;;;;7.45;3.80;;;31.80;96.60;;;;;;4174368;28;20049;-69
2022/06/25 04:11:25;;;;;;;5.40;3.55;;;32.10;96.50;;;;;;4158175;28;20064;-70
2022/06/25 04:13:31;;;;;;;5.57;3.67;;;32.20;95.90;;;;;;4179654;28;20048;-70
2022/06/25 04:15:38;;;;;;;5.28;3.75;;;32.30;96.20;;;;;;4162230;28;20059;-70
2022/06/25 04:17:44;;;;;;;5.00;3.58;;;32.20;96.50;;;;;;4158610;28;20515;-70
2022/06/25 04:20:03;;;;;;;4.22;2.92;;;32.20;96.20;;;;;;4176645;28;20133;-69
2022/06/25 04:22:11;;;;;;;4.05;3.17;;;32.50;96.30;;;;;;4175217;28;20047;-69
2022/06/25 04:24:18;;;;;;;3.97;2.60;;;32.60;96.20;;;;;;4175323;28;20080;-72
2022/06/25 04:26:25;;;;;;;5.28;3.00;;;32.50;96.30;;;;;;4156430;28;20384;-69
2022/06/25 04:31:05;;;;;;;5.95;2.58;;;32.60;96.10;;;;;;4174695;28;20107;-69
2022/06/25 04:33:13;;;;;;;3.08;2.42;;;32.80;95.70;;;;;;4159766;28;20041;-68
2022/06/25 04:35:33;;;;;;;3.15;2.50;;;33.00;95.90;;;;;;4169390;28;20380;-68
2022/06/25 04:37:57;;;;;;;3.15;2.85;;;33.10;95.40;;;;;;4158768;28;20033;-68
2022/06/25 04:40:14;;;;;;;4.03;2.50;;;33.20;95.30;;;;;;4160173;28;20057;-71
2022/06/25 04:42:33;;;;;;;4.35;3.08;;;33.30;95.20;;;;;;4169531;28;20045;-70
2022/06/25 04:44:51;;;;;;;5.10;3.10;;;33.30;95.30;;;;;;4161213;28;20069;-72
2022/06/25 04:47:00;;;;;;;3.97;2.90;;;33.30;95.00;;;;;;4175170;28;20049;-69
2022/06/25 04:49:17;;;;;;;3.55;2.95;;;33.30;94.60;;;;;;4176291;28;20036;-70
2022/06/25 04:51:31;;;;;;;3.22;2.40;;;33.40;94.80;;;;;;4167486;28;20058;-71
2022/06/25 04:53:55;;;;;;;4.10;2.45;;;33.40;94.50;;;;;;4142817;28;20053;-72
2022/06/25 04:56:18;;;;;;;3.90;2.42;;;33.50;94.40;;;;;;4162962;28;20091;-72
2022/06/25 04:58:24;;;;;;;3.47;2.60;;;33.50;93.60;;;;;;4175158;28;20123;-72
2022/06/25 05:00:45;;;;;;;3.97;2.50;;;33.50;93.90;;;;;;4168469;28;20049;-71
2022/06/25 05:02:52;;;;;;;3.22;2.20;;;33.50;94.10;;;;;;4175172;28;20041;-71
2022/06/25 05:04:57;;;;;;;4.40;2.60;;;33.60;94.40;;;;;;4158672;28;20524;-71
2022/06/25 05:07:10;;;;;;;2.92;2.50;;;33.70;94.40;;;;;;4175738;28;20104;-71
2022/06/25 05:09:14;;;;;;;5.20;2.35;;;33.80;94.40;;;;;;4172303;28;20049;-71
2022/06/25 05:11:22;;;;;;;3.65;2.55;;;33.80;94.30;;;;;;4158030;28;20056;-72
2022/06/25 05:13:29;;;;;;;5.07;2.30;;;33.80;93.70;;;;;;4159074;28;20121;-71
2022/06/25 05:15:35;;;;;;;2.72;2.15;;;33.80;93.70;;;;;;4159684;28;20057;-73
2022/06/25 05:17:41;;;;;;;4.43;2.10;;;33.90;94.10;;;;;;4167167;28;20045;-72
2022/06/25 05:19:49;;;;;;;5.45;2.50;;;34.00;94.30;;;;;;4168186;28;20474;-73
2022/06/25 05:21:54;;;;;;;4.28;2.30;;;34.10;94.20;;;;;;4174440;28;20056;-74
2022/06/25 05:24:05;;;;;;;3.08;2.00;;;34.10;93.60;;;;;;4174973;28;20131;-74
2022/06/25 05:26:13;;;;;;;3.65;2.30;;;34.10;93.60;;;;;;4174456;28;20071;-74
2022/06/25 05:28:19;;;;;;;2.47;2.10;;;34.10;93.60;;;;;;4143005;28;20169;-73
2022/06/25 05:30:40;;;;;;;3.13;1.90;;;34.20;93.60;;;;;;4180693;28;20152;-74
2022/06/25 05:32:47;;;;;;;4.13;2.22;;;34.20;93.40;;;;;;4177569;28;20045;-73
2022/06/25 05:34:57;;;;;;;3.40;2.08;;;34.20;92.80;;;;;;4179964;28;20048;-72
2022/06/25 05:37:07;;;;;;;3.42;2.45;;;34.20;92.90;;;;;;4144806;28;20061;-74
2022/06/25 05:39:13;;;;;;;3.45;2.35;;;34.20;92.70;;;;;;4178404;28;20462;-71
2022/06/25 05:41:23;;;;;;;9.05;2.30;;;34.20;92.90;;;;;;4180386;28;20045;-72
2022/06/25 05:43:28;;;;;;;4.38;2.10;;;34.30;93.30;;;;;;4161992;28;20108;-71
2022/06/25 05:45:33;;;;;;;2.88;2.10;;;34.40;93.30;;;;;;4179070;28;20051;-72
2022/06/25 05:47:38;;;;;;;2.97;1.90;;;34.50;93.10;;;;;;4177971;28;20041;-72
2022/06/25 05:49:44;;;;;;;4.35;2.05;;;34.50;92.90;;;;;;4182125;28;20539;-72
2022/06/25 05:51:49;;;;;;;3.70;2.30;;;34.50;92.70;;;;;;4177535;28;20045;-72
2022/06/25 05:53:54;;;;;;;3.90;2.17;;;34.40;92.30;;;;;;4177977;28;20045;-72
2022/06/25 05:56:01;;;;;;;2.80;1.88;;;34.40;92.00;;;;;;4178878;28;20037;-72
2022/06/25 05:58:07;;;;;;;3.72;2.15;;;34.40;92.00;;;;;;4179152;28;20048;-72
2022/06/25 06:00:13;;;;;;;2.65;1.90;;;34.50;92.20;;;;;;4165022;28;20049;-70
2022/06/25 06:02:19;;;;;;;2.08;1.80;;;34.60;92.00;;;;;;4177653;28;20061;-72
2022/06/25 06:04:26;;;;;;;3.45;1.92;;;34.70;92.00;;;;;;4161705;28;20052;-70
2022/06/25 06:06:32;;;;;;;4.53;2.13;;;34.80;92.10;;;;;;4161281;28;20053;-72
2022/06/25 06:08:37;;;;;;;3.33;2.20;;;35.00;91.80;;;;;;4178288;28;20048;-72
2022/06/25 06:10:43;;;;;;;3.55;2.15;;;35.00;91.90;;;;;;4161162;28;20579;-71
2022/06/25 06:12:49;;;;;;;7.63;2.42;;;35.00;92.00;;;;;;4161453;28;20068;-72
2022/06/25 06:14:56;;;;;;;3.83;2.00;;;34.90;91.80;;;;;;4160280;28;20034;-72
2022/06/25 06:17:02;;;;;;;3.35;2.17;;;34.90;91.40;;;;;;4169796;28;20041;-73
2022/06/25 06:19:07;;;;;;;2.42;1.80;;;35.00;91.10;;;;;;4178976;28;20063;-73
2022/06/25 06:21:11;;;;;;;2.25;1.90;;;35.00;91.40;;;;;;4170404;28;20042;-73
2022/06/25 06:23:21;;;;;;;4.97;2.05;;;35.00;91.50;;;;;;4174352;28;20446;-73
2022/06/25 06:25:26;;;;;;;3.33;2.05;;;35.00;91.60;;;;;;4178662;28;20140;-73
2022/06/25 06:27:33;;;;;;;3.35;2.13;;;35.20;91.50;;;;;;4178687;28;20466;-73
2022/06/25 06:29:40;;;;;;;2.70;1.83;;;35.30;91.20;;;;;;4169558;28;20064;-70
2022/06/25 06:31:45;;;;;;;3.03;1.92;;;35.30;90.70;;;;;;4175736;28;20086;-70
2022/06/25 06:33:51;;;;;;;3.13;1.52;;;35.40;90.70;;;;;;4160280;28;20049;-71
2022/06/25 06:35:58;;;;;;;2.45;1.70;;;35.50;90.50;;;;;;4176913;28;20037;-70
2022/06/25 06:38:03;;;;;;;3.13;1.70;;;35.50;90.50;;;;;;4177329;28;20041;-70
2022/06/25 06:40:08;;;;;;;5.43;1.73;;;35.50;90.50;;;;;;4176941;28;20091;-70
2022/06/25 06:42:32;;;;;;;3.65;2.10;;;35.20;91.20;;;;;;4178137;28;20049;-70
2022/06/25 06:44:37;;;;;;;2.28;1.75;;;35.10;91.40;;;;;;4173888;28;20104;-71
2022/06/25 06:46:43;;;;;;;2.13;1.60;;;35.10;91.20;;;;;;4171551;28;20059;-71
2022/06/25 06:48:53;;;;;;;3.33;1.70;;;35.00;90.90;;;;;;4170827;28;20052;-71
2022/06/25 06:50:58;;;;;;;2.95;1.60;;;35.00;91.00;;;;;;4175408;28;20518;-71
2022/06/25 06:53:03;;;;;;;2.50;1.70;;;35.10;90.80;;;;;;4169785;28;20069;-70
2022/06/25 06:55:08;;;;;;;2.83;1.98;;;35.30;90.70;;;;;;4170038;28;20128;-71
2022/06/25 06:57:12;;;;;;;2.38;1.60;;;35.30;90.60;;;;;;4185336;28;20092;-70
2022/06/25 06:59:17;;;;;;;4.10;1.65;;;35.20;90.50;;;;;;4170246;28;20440;-70
2022/06/25 07:01:22;;;;;;;3.20;1.65;;;35.20;90.60;;;;;;4169749;28;20049;-70
2022/06/25 07:03:28;;;;;;;2.72;1.90;;;35.20;90.80;;;;;;4171300;28;20535;-72
2022/06/25 07:05:33;;;;;;;3.20;2.00;;;35.30;90.80;;;;;;4169408;28;20448;-71
2022/06/25 07:07:40;;;;;;;3.22;1.90;;;35.20;90.40;;;;;;4176340;28;20464;-68
2022/06/25 07:09:45;;;;;;;2.55;1.90;;;35.30;90.50;;;;;;4155949;28;20144;-71
2022/06/25 07:11:49;;;;;;;3.33;1.98;;;35.30;90.20;;;;;;4172804;28;20052;-69
2022/06/25 07:14:00;;;;;;;2.97;1.88;;;35.30;90.60;;;;;;4170710;28;20099;-71
2022/06/25 07:16:05;;;;;;;2.22;1.60;;;35.20;90.40;;;;;;4168797;28;20045;-69
2022/06/25 07:18:12;;;;;;;2.53;1.92;;;35.20;90.40;;;;;;4169060;28;20048;-68
2022/06/25 07:20:18;;;;;;;2.67;2.00;;;35.30;90.50;;;;;;4170456;28;20052;-68
2022/06/25 07:22:23;;;;;;;2.70;2.10;;;35.20;90.50;;;;;;4173854;28;20042;-69
2022/06/25 07:24:31;;;;;;;2.17;1.70;;;35.10;90.20;;;;;;4170489;28;20404;-71
2022/06/25 07:26:38;;;;;;;3.53;1.83;;;35.20;90.50;;;;;;4190693;28;20056;-70
2022/06/25 07:28:42;;;;;;;3.22;2.15;;;35.30;90.50;;;;;;4176863;28;20801;-71
2022/06/25 07:30:49;;;;;;;4.15;1.85;;;35.40;90.30;;;;;;4172702;28;20649;-71
2022/06/25 07:32:56;;;;;;;2.67;1.90;;;35.20;90.20;;;;;;4170479;28;20068;-71
2022/06/25 07:35:01;;;;;;;4.13;1.70;;;35.00;90.70;;;;;;4171101;28;20041;-70
2022/06/25 07:37:08;;;;;;;2.95;1.77;;;35.10;90.30;;;;;;4171195;28;20069;-69
2022/06/25 07:39:15;;;;;;;3.42;1.98;;;35.10;89.90;;;;;;4172635;28;20036;-69
2022/06/25 07:41:20;;;;;;;1.98;1.60;;;35.10;89.80;;;;;;4172222;28;20128;-70
2022/06/25 07:43:31;;;;;;;2.95;1.77;;;35.40;89.40;;;;;;4157149;28;20041;-69
2022/06/25 07:45:39;;;;;;;3.28;2.00;;;35.40;89.70;;;;;;4170259;28;20049;-68
2022/06/25 07:47:44;;;;;;;3.85;1.80;;;35.40;89.80;;;;;;4169471;28;20064;-69
2022/06/25 07:52:14;;;;;;;2.75;1.90;;;35.40;88.90;;;;;;4173972;28;20049;-70
2022/06/25 07:54:19;;;;;;;3.00;1.70;;;35.40;89.30;;;;;;4176947;28;20041;-71
2022/06/25 07:56:25;;;;;;;2.65;1.92;;;35.50;89.70;;;;;;4169271;28;20107;-70
2022/06/25 07:58:32;;;;;;;2.25;1.65;;;35.50;89.40;;;;;;4170060;28;20124;-70
2022/06/25 08:00:37;;;;;;;2.25;1.73;;;35.40;89.30;;;;;;4190775;28;20037;-70
2022/06/25 08:02:42;;;;;;;2.30;1.63;;;35.20;89.10;;;;;;4156694;28;20397;-69
2022/06/25 08:04:50;;;;;;;3.50;2.40;;;35.30;89.60;;;;;;4169930;28;20041;-70
2022/06/25 08:06:56;;;;;;;3.30;1.98;;;35.30;90.10;;;;;;4172047;28;20045;-70
2022/06/25 08:09:04;;;;;;;3.83;1.60;;;35.20;90.00;;;;;;4172925;28;20087;-71
2022/06/25 08:11:09;;;;;;;2.17;1.50;;;35.30;89.80;;;;;;4177106;28;20565;-71
2022/06/25 08:13:14;;;;;;;2.80;1.60;;;35.40;89.60;;;;;;4177357;28;20049;-70
2022/06/25 08:15:20;;;;;;;3.83;1.88;;;35.40;89.60;;;;;;4177199;28;20497;-71
2022/06/25 08:17:27;;;;;;;2.70;1.77;;;35.50;90.00;;;;;;4161051;28;20075;-70
2022/06/25 08:19:32;;;;;;;3.10;1.63;;;35.50;90.20;;;;;;4178286;28;20139;-71
2022/06/25 08:21:38;;;;;;;6.45;2.33;;;35.50;90.20;;;;;;4171363;28;20069;-70
2022/06/25 08:23:45;;;;;;;3.13;2.20;;;35.40;90.40;;;;;;4176736;28;20049;-70
2022/06/25 08:25:50;;;;;;;2.15;1.88;;;35.50;90.20;;;;;;4177930;28;20037;-70
2022/06/25 08:27:57;;;;;;;2.58;2.00;;;35.10;90.00;;;;;;4177689;28;20072;-71
2022/06/25 08:30:02;;;;;;;2.75;1.70;;;34.90;90.00;;;;;;4177981;28;20140;-71
2022/06/25 08:32:06;;;;;;;4.55;1.90;;;34.80;90.00;;;;;;4152502;28;20504;-71
2022/06/25 08:34:11;;;;;;;1.95;1.73;;;34.80;89.90;;;;;;4170704;28;20037;-71
2022/06/25 08:36:19;;;;;;;2.95;1.90;;;34.90;90.00;;;;;;4170041;28;20092;-72
2022/06/25 08:38:24;;;;;;;3.65;2.10;;;35.10;89.80;;;;;;4176878;28;20119;-68
2022/06/25 08:40:29;;;;;;;2.60;1.73;;;35.10;89.50;;;;;;4176912;28;20057;-70
2022/06/25 08:42:35;;;;;;;3.15;1.77;;;35.10;89.10;;;;;;4175952;28;20058;-71
2022/06/25 08:44:40;;;;;;;3.22;1.70;;;35.10;88.80;;;;;;4176768;28;20448;-70
2022/06/25 08:46:52;;;;;;;2.42;1.60;;;35.20;88.60;;;;;;4177891;28;20037;-71
2022/06/25 08:49:00;;;;;;;3.30;2.30;;;35.10;89.30;;;;;;4173611;28;20561;-69
2022/06/25 08:51:08;;;;;;;2.92;1.90;;;35.10;89.50;;;;;;4145159;28;20504;-69
2022/06/25 08:53:15;;;;;;;4.43;2.40;;;35.10;89.60;;;;;;4166172;28;20380;-68
2022/06/25 08:55:32;;;;;;;3.70;2.25;;;35.00;89.30;;;;;;4150165;28;20040;-70
2022/06/25 08:57:37;;;;;;;5.07;2.13;;;34.90;89.40;;;;;;4148942;28;20053;-71
2022/06/25 08:59:42;;;;;;;3.22;2.13;;;34.80;89.00;;;;;;4116770;28;20517;-71
2022/06/25 09:01:49;;;;;;;4.07;2.05;;;34.80;88.10;;;;;;4118602;28;20508;-68
2022/06/25 09:03:55;;;;;;;2.70;1.70;;;34.80;88.50;;;;;;4133060;28;20085;-71
2022/06/25 09:06:13;;;;;;;2.55;1.70;;;34.80;87.60;;;;;;4118857;28;20038;-70
2022/06/25 09:08:19;;;;;;;2.28;1.40;;;34.80;86.80;;;;;;4126077;28;20061;-70
2022/06/25 09:10:25;;;;;;;3.20;2.00;;;34.80;87.20;;;;;;4135151;28;20054;-69
2022/06/25 09:12:32;;;;;;;3.25;2.05;;;34.80;87.50;;;;;;4130851;28;20863;-69
2022/06/25 09:14:39;;;;;;;2.83;1.90;;;34.80;88.20;;;;;;4083059;29;20075;-69
2022/06/25 09:16:57;;;;;;;2.40;1.80;;;34.80;88.60;;;;;;4078852;29;20586;-69
2022/06/25 09:19:04;;;;;;;3.28;2.08;;;34.70;88.80;;;;;;4072755;29;20051;-69
2022/06/25 09:21:11;;;;;;;3.08;2.15;;;34.70;89.00;;;;;;4109005;28;20042;-69
2022/06/25 09:23:16;;;;;;;3.75;2.10;;;34.60;89.00;;;;;;4111557;28;20085;-70
2022/06/25 09:25:28;;;;;;;2.75;1.75;;;34.60;87.90;;;;;;4094610;28;20051;-71
2022/06/25 09:27:37;;;;;;;3.45;2.38;;;34.70;87.60;;;;;;4079091;28;20229;-72
2022/06/25 09:29:45;;;;;;;3.65;1.83;;;34.70;87.80;;;;;;4110537;28;20097;-71
2022/06/25 09:31:52;;;;;;;2.15;1.83;;;34.70;87.70;;;;;;4125101;28;20046;-71
2022/06/25 09:34:00;;;;;;;2.22;1.90;;;34.60;87.70;;;;;;4127161;28;20201;-70
2022/06/25 09:36:09;;;;;;;3.72;1.90;;;34.60;87.50;;;;;;4078548;29;20067;-70
2022/06/25 09:38:16;;;;;;;2.78;2.00;;;34.60;88.80;;;;;;4054068;29;20070;-70
2022/06/25 09:40:23;;;;;;;3.38;1.90;;;34.60;88.50;;;;;;4038071;29;20805;-71
2022/06/25 09:42:30;;;;;;;3.65;1.83;;;34.30;88.80;;;;;;4029454;29;20101;-70
2022/06/25 09:44:36;;;;;;;2.83;1.83;;;34.30;89.90;;;;;;4016869;29;20174;-69
2022/06/25 09:46:56;;;;;;;2.97;2.00;;;34.40;90.10;;;;;;4099320;28;20051;-69
2022/06/25 09:49:22;;;;;;;3.85;1.95;;;34.40;90.10;;;;;;4107804;28;20379;-69
2022/06/25 09:51:33;;;;;;;3.22;2.05;;;34.30;90.30;;;;;;4106347;28;20054;-69
2022/06/25 09:53:54;;;;;;;3.88;1.92;;;34.30;90.20;;;;;;4091024;28;20051;-70
2022/06/25 09:55:58;;;;;;;3.35;2.05;;;34.20;90.20;;;;;;4091939;28;20083;-70
2022/06/25 09:58:05;;;;;;;3.35;1.73;;;34.10;89.40;;;;;;4108745;28;20133;-69
2022/06/25 10:00:16;;;;;;;2.65;1.70;;;34.10;89.30;;;;;;4102577;28;20502;-70
2022/06/25 10:02:21;;;;;;;3.45;1.63;;;34.10;89.70;;;;;;4108625;28;21018;-70
2022/06/25 10:04:28;;;;;;;2.65;1.60;;;34.10;89.80;;;;;;4093519;28;20134;-71
2022/06/25 10:06:35;;;;;;;2.40;1.70;;;34.00;90.20;;;;;;4112823;28;20081;-71
2022/06/25 10:08:40;;;;;;;4.28;2.05;;;33.90;90.10;;;;;;4128165;28;20077;-69
2022/06/25 10:10:47;;;;;;;5.13;2.10;;;33.80;90.40;;;;;;4168786;28;20049;-70
2022/06/25 10:12:54;;;;;;;3.17;1.77;;;33.70;90.60;;;;;;4170987;28;20053;-70
2022/06/25 10:14:58;;;;;;;4.40;2.03;;;33.70;90.80;;;;;;4166197;28;20459;-71
2022/06/25 10:17:05;;;;;;;3.83;2.00;;;33.70;90.80;;;;;;4168732;28;20108;-70
2022/06/25 10:19:12;;;;;;;3.20;2.15;;;33.60;90.70;;;;;;4155801;28;20041;-70
2022/06/25 10:21:19;;;;;;;3.40;2.30;;;33.60;91.00;;;;;;4172160;28;20037;-70
2022/06/25 10:23:26;;;;;;;3.90;2.63;;;33.60;91.10;;;;;;4171821;28;20037;-70
2022/06/25 10:25:33;;;;;;;4.28;2.88;;;33.50;91.20;;;;;;4172111;28;20757;-70
2022/06/25 10:27:45;;;;;;;3.70;2.80;;;33.50;91.10;;;;;;4172219;28;20063;-69
2022/06/25 10:29:54;;;;;;;3.97;3.00;;;33.50;90.90;;;;;;4159771;28;20133;-70
2022/06/25 10:32:18;;;;;;;3.53;2.42;;;33.40;90.90;;;;;;4169978;28;20045;-70
2022/06/25 10:34:24;;;;;;;3.70;2.53;;;33.40;90.60;;;;;;4193107;28;20056;-71
2022/06/25 10:36:49;;;;;;;4.70;2.55;;;33.30;90.80;;;;;;4173738;28;20082;-70
2022/06/25 10:38:55;;;;;;;2.97;2.20;;;33.30;90.90;;;;;;4159781;28;20045;-70
2022/06/25 10:43:41;;;;;;;4.88;3.40;;;33.20;91.30;;;;;;4141541;28;20148;-70
2022/06/25 10:45:59;;;;;;;6.68;4.40;;;33.20;91.30;;;;;;4178241;28;20084;-70
2022/06/25 10:48:05;;;;;;;6.30;4.22;;;33.10;91.50;;;;;;4179270;28;20166;-71
2022/06/25 10:50:21;;;;;;;10.68;5.40;;;32.90;91.70;;;;;;4178076;28;20064;-70
2022/06/25 10:52:35;;;;;;;10.10;5.85;;;32.80;92.00;;;;;;4168276;28;20057;-71
2022/06/25 10:55:00;;;;;;;11.95;7.28;;;32.70;92.30;;;;;;4162333;28;20037;-69
2022/06/25 10:57:07;;;;;;;14.68;7.88;;;32.60;92.40;;;;;;4151026;28;20799;-70
2022/06/25 10:59:39;;;;;;;12.43;6.78;;;32.60;92.50;;;;;;4156985;28;20766;-70
2022/06/25 11:01:45;;;;;;;14.23;9.27;;;32.40;93.00;;;;;;4144090;28;20049;-70
2022/06/25 11:03:55;;;;;;;14.98;8.55;;;32.40;93.10;;;;;;4154101;28;20072;-70
2022/06/25 11:06:13;;;;;;;7.65;4.80;;;32.30;93.10;;;;;;4154139;28;20152;-69
2022/06/25 11:08:22;;;;;;;7.32;3.00;;;32.20;92.90;;;;;;4160401;28;20769;-70
2022/06/25 11:10:39;;;;;;;4.50;2.50;;;32.10;93.00;;;;;;4150617;28;20164;-70
2022/06/25 11:12:48;;;;;;;4.03;2.40;;;32.00;92.90;;;;;;4157627;28;20064;-70
2022/06/25 11:15:03;;;;;;;6.15;2.70;;;31.90;92.90;;;;;;4159607;28;20052;-70
2022/06/25 11:17:10;;;;;;;7.10;2.50;;;31.90;93.30;;;;;;4134788;28;20047;-69
2022/06/25 11:19:17;;;;;;;3.92;2.55;;;31.70;93.20;;;;;;4133349;28;20042;-69
2022/06/25 11:21:31;;;;;;;3.97;2.60;;;31.60;93.20;;;;;;4152010;28;20112;-70